createdAt,value
2023-01-31T00:00:53.333Z,3.28
2023-01-31T00:03:20.055Z,3.80
2023-01-31T00:05:46.777Z,4.13
2023-01-31T00:08:15.341Z,3.38
2023-01-31T00:10:42.091Z,4.60
2023-01-31T00:13:08.914Z,4.60
2023-01-31T00:15:36.046Z,4.00
2023-01-31T00:18:02.739Z,3.22
2023-01-31T00:20:29.470Z,4.13
2023-01-31T00:22:56.144Z,4.82
2023-01-31T00:25:22.871Z,3.08
2023-01-31T00:27:49.539Z,4.85
2023-01-31T00:30:16.335Z,4.22
2023-01-31T00:32:43.105Z,3.83
2023-01-31T00:35:10.214Z,3.85
2023-01-31T00:37:36.990Z,4.70
2023-01-31T00:40:04.534Z,3.85
2023-01-31T00:42:31.272Z,3.65
2023-01-31T00:44:58.077Z,3.42
2023-01-31T00:47:24.760Z,3.22
2023-01-31T00:49:53.880Z,3.53
2023-01-31T00:52:20.572Z,3.08
2023-01-31T00:54:47.421Z,4.60
2023-01-31T00:57:14.152Z,3.30
2023-01-31T00:59:41.096Z,4.68
2023-01-31T01:02:07.898Z,4.32
2023-01-31T01:04:35.116Z,3.42
2023-01-31T01:07:02.232Z,3.67
2023-01-31T01:09:28.935Z,3.13
2023-01-31T01:11:55.650Z,4.85
2023-01-31T01:14:22.351Z,3.13
2023-01-31T01:16:49.113Z,4.15
2023-01-31T01:19:17.504Z,4.65
2023-01-31T01:21:44.496Z,3.88
2023-01-31T01:24:16.032Z,3.85
2023-01-31T01:26:43.323Z,3.40
2023-01-31T01:29:10.023Z,3.45
2023-01-31T01:31:38.008Z,3.60
2023-01-31T01:34:06.951Z,3.63
2023-01-31T01:36:35.091Z,3.47
2023-01-31T01:39:02.000Z,3.67
2023-01-31T01:41:28.771Z,3.50
2023-01-31T01:43:59.036Z,3.50
2023-01-31T01:46:30.469Z,3.63
2023-01-31T01:49:26.530Z,4.85
2023-01-31T01:51:53.447Z,3.78
2023-01-31T01:54:23.049Z,4.03
2023-01-31T01:56:51.159Z,3.20
2023-01-31T01:59:23.281Z,4.13
2023-01-31T02:01:50.002Z,3.25
2023-01-31T02:04:21.224Z,3.65
2023-01-31T02:06:47.963Z,3.10
2023-01-31T02:09:29.999Z,3.70
2023-01-31T02:11:56.670Z,4.05
2023-01-31T02:14:23.331Z,3.05
2023-01-31T02:16:50.055Z,3.67
2023-01-31T02:19:39.706Z,2.67
2023-01-31T02:22:43.182Z,3.88
2023-01-31T02:25:31.070Z,3.85
2023-01-31T02:28:40.321Z,3.10
2023-01-31T02:31:32.100Z,2.47
2023-01-31T02:34:12.965Z,3.22
2023-01-31T02:37:05.148Z,3.83
2023-01-31T02:39:41.849Z,3.42
2023-01-31T02:42:14.213Z,5.55
2023-01-31T02:44:59.264Z,4.03
2023-01-31T02:47:56.403Z,3.92
2023-01-31T02:50:25.999Z,3.83
2023-01-31T02:52:53.328Z,3.28
2023-01-31T02:55:38.403Z,3.33
2023-01-31T02:58:06.878Z,3.70
2023-01-31T03:00:34.365Z,2.70
2023-01-31T03:03:01.118Z,2.80
2023-01-31T03:05:27.929Z,4.38
2023-01-31T03:07:56.058Z,3.30
2023-01-31T03:10:34.737Z,3.05
2023-01-31T03:13:09.061Z,3.25
2023-01-31T03:16:29.811Z,3.40
2023-01-31T03:19:29.000Z,3.85
2023-01-31T03:22:01.255Z,3.20
2023-01-31T03:24:30.161Z,3.38
2023-01-31T03:26:57.605Z,4.45
2023-01-31T03:29:24.408Z,3.35
2023-01-31T03:31:55.079Z,3.75
2023-01-31T03:34:21.918Z,3.25
2023-01-31T03:37:13.301Z,3.50
2023-01-31T03:40:06.144Z,4.63
2023-01-31T03:42:46.283Z,3.22
2023-01-31T03:45:20.847Z,3.25
2023-01-31T03:47:49.262Z,3.25
2023-01-31T03:50:28.279Z,4.03
2023-01-31T03:53:22.360Z,4.20
2023-01-31T03:56:20.046Z,4.25
2023-01-31T03:58:53.751Z,3.05
2023-01-31T04:01:20.810Z,2.88
2023-01-31T04:03:57.834Z,2.92
2023-01-31T04:06:24.483Z,4.32
2023-01-31T04:08:51.380Z,4.22
2023-01-31T04:11:20.365Z,3.33
2023-01-31T04:13:47.052Z,3.25
2023-01-31T04:16:13.829Z,4.63
2023-01-31T04:18:40.510Z,3.60
2023-01-31T04:21:07.299Z,3.47
2023-01-31T04:23:33.973Z,3.45
2023-01-31T04:26:00.707Z,3.13
2023-01-31T04:28:27.455Z,3.80
2023-01-31T04:30:54.978Z,2.97
2023-01-31T04:33:21.752Z,3.38
2023-01-31T04:35:48.420Z,3.40
2023-01-31T04:38:15.386Z,3.58
2023-01-31T04:40:42.122Z,3.80
2023-01-31T04:43:10.699Z,3.28
2023-01-31T04:45:37.600Z,3.30
2023-01-31T04:48:04.609Z,3.03
2023-01-31T04:50:31.756Z,3.97
2023-01-31T04:52:58.459Z,3.03
2023-01-31T04:55:26.870Z,3.35
2023-01-31T04:57:53.928Z,3.53
2023-01-31T05:00:21.124Z,3.40
2023-01-31T05:02:47.826Z,3.70
2023-01-31T05:05:14.510Z,3.45
2023-01-31T05:07:41.201Z,3.08
2023-01-31T05:10:08.629Z,3.45
2023-01-31T05:12:35.333Z,3.20
2023-01-31T05:15:02.219Z,3.45
2023-01-31T05:17:29.956Z,3.15
2023-01-31T05:19:57.352Z,3.88
2023-01-31T05:22:24.519Z,2.88
2023-01-31T05:24:51.235Z,3.30
2023-01-31T05:27:18.683Z,3.05
2023-01-31T05:29:45.850Z,3.00
2023-01-31T05:32:12.859Z,2.67
2023-01-31T05:34:39.553Z,2.75
2023-01-31T05:37:06.254Z,3.10
2023-01-31T05:39:33.070Z,4.88
2023-01-31T05:41:59.914Z,3.13
2023-01-31T05:44:26.948Z,3.45
2023-01-31T05:46:53.694Z,5.22
2023-01-31T05:49:20.396Z,3.15
2023-01-31T05:51:47.100Z,3.95
2023-01-31T05:54:13.888Z,5.35
2023-01-31T05:56:40.789Z,3.35
2023-01-31T05:59:07.534Z,4.03
2023-01-31T06:01:34.260Z,8.48
2023-01-31T06:04:01.044Z,6.30
2023-01-31T06:06:27.729Z,4.15
2023-01-31T06:08:54.450Z,4.38
2023-01-31T06:11:21.207Z,5.65
2023-01-31T06:13:49.374Z,4.60
2023-01-31T06:16:16.214Z,5.38
2023-01-31T06:18:42.950Z,5.47
2023-01-31T06:21:09.667Z,8.32
2023-01-31T06:23:36.524Z,5.70
2023-01-31T06:26:03.183Z,9.00
2023-01-31T06:28:30.663Z,10.43
2023-01-31T06:30:58.992Z,5.63
2023-01-31T06:33:42.319Z,9.85
2023-01-31T06:36:11.343Z,11.27
2023-01-31T06:38:38.032Z,6.47
2023-01-31T06:41:04.895Z,6.05
2023-01-31T06:43:31.785Z,4.28
2023-01-31T06:45:58.723Z,8.00
2023-01-31T06:48:25.399Z,9.77
2023-01-31T06:50:52.090Z,4.90
2023-01-31T06:53:18.758Z,5.47
2023-01-31T06:55:45.462Z,3.70
2023-01-31T06:58:12.159Z,6.88
2023-01-31T07:00:38.883Z,5.63
2023-01-31T07:03:05.614Z,5.70
2023-01-31T07:05:33.603Z,4.65
2023-01-31T07:08:00.388Z,10.30
2023-01-31T07:10:27.393Z,4.50
2023-01-31T07:12:54.117Z,3.58
2023-01-31T07:15:21.199Z,5.85
2023-01-31T07:17:48.267Z,5.53
2023-01-31T07:20:15.040Z,4.55
2023-01-31T07:22:41.890Z,5.85
2023-01-31T07:25:08.944Z,5.10
2023-01-31T07:27:35.781Z,4.70
2023-01-31T07:30:02.462Z,5.05
2023-01-31T07:32:31.047Z,4.35
2023-01-31T07:34:58.409Z,4.55
2023-01-31T07:37:25.108Z,4.97
2023-01-31T07:39:51.814Z,5.82
2023-01-31T07:42:18.545Z,4.03
2023-01-31T07:44:45.262Z,4.00
2023-01-31T07:47:12.010Z,4.25
2023-01-31T07:49:38.685Z,4.72
2023-01-31T07:52:06.102Z,4.15
2023-01-31T07:54:33.625Z,4.03
2023-01-31T07:57:00.422Z,3.30
2023-01-31T07:59:27.252Z,5.78
2023-01-31T08:02:12.469Z,4.82
2023-01-31T08:04:39.234Z,5.80
2023-01-31T08:07:06.995Z,10.27
2023-01-31T08:09:33.838Z,5.45
2023-01-31T08:12:00.569Z,7.70
2023-01-31T08:14:28.644Z,3.97
2023-01-31T08:16:55.942Z,5.13
2023-01-31T08:19:22.898Z,4.78
2023-01-31T08:21:50.030Z,4.13
2023-01-31T08:24:16.756Z,4.40
2023-01-31T08:26:44.368Z,4.93
2023-01-31T08:29:11.122Z,3.45
2023-01-31T08:31:37.927Z,4.13
2023-01-31T08:34:06.684Z,4.55
2023-01-31T08:36:33.917Z,3.65
2023-01-31T08:39:00.869Z,9.38
2023-01-31T08:41:29.118Z,11.30
2023-01-31T08:43:58.952Z,3.92
2023-01-31T08:46:30.746Z,4.07
2023-01-31T08:48:58.762Z,6.13
2023-01-31T08:51:25.471Z,5.85
2023-01-31T08:53:52.384Z,4.35
2023-01-31T08:56:21.259Z,5.28
2023-01-31T08:58:48.184Z,6.50
2023-01-31T09:01:15.970Z,4.40
2023-01-31T09:03:45.054Z,4.70
2023-01-31T09:06:19.272Z,3.70
2023-01-31T09:08:46.095Z,5.35
2023-01-31T09:11:19.873Z,4.25
2023-01-31T09:13:47.225Z,5.28
2023-01-31T09:16:14.268Z,5.75
2023-01-31T09:18:41.273Z,5.55
2023-01-31T09:21:15.889Z,4.60
2023-01-31T09:23:43.023Z,5.22
2023-01-31T09:26:12.902Z,3.22
2023-01-31T09:28:42.717Z,5.50
2023-01-31T09:31:11.860Z,3.78
2023-01-31T09:33:38.779Z,5.40
2023-01-31T09:36:07.527Z,3.83
2023-01-31T09:38:34.529Z,4.20
2023-01-31T09:41:06.366Z,3.78
2023-01-31T09:43:43.381Z,5.30
2023-01-31T09:46:19.352Z,6.38
2023-01-31T09:48:48.948Z,3.70
2023-01-31T09:51:16.160Z,7.13
2023-01-31T09:53:43.324Z,4.63
2023-01-31T09:56:36.859Z,5.45
2023-01-31T09:59:37.206Z,4.32
2023-01-31T10:02:23.431Z,6.97
2023-01-31T10:05:13.783Z,8.10
2023-01-31T10:08:02.784Z,6.43
2023-01-31T10:10:49.114Z,6.80
2023-01-31T10:13:39.487Z,5.28
2023-01-31T10:16:18.141Z,7.65
2023-01-31T10:18:55.082Z,5.43
2023-01-31T10:21:24.323Z,7.15
2023-01-31T10:23:55.561Z,6.28
2023-01-31T10:26:32.644Z,6.20
2023-01-31T10:29:14.181Z,6.40
2023-01-31T10:31:47.153Z,4.63
2023-01-31T10:34:40.524Z,5.40
2023-01-31T10:37:12.727Z,5.93
2023-01-31T10:39:56.258Z,4.28
2023-01-31T10:42:30.841Z,4.20
2023-01-31T10:45:17.376Z,3.90
2023-01-31T10:48:22.275Z,5.05
2023-01-31T10:51:08.059Z,4.30
2023-01-31T10:53:50.088Z,3.85
2023-01-31T10:56:32.671Z,7.72
2023-01-31T10:59:01.420Z,3.67
2023-01-31T11:01:29.689Z,4.45
2023-01-31T11:03:57.700Z,6.13
2023-01-31T11:06:25.214Z,6.35
2023-01-31T11:09:00.325Z,3.88
2023-01-31T11:11:29.174Z,3.50
2023-01-31T11:14:00.644Z,4.63
2023-01-31T11:16:33.953Z,4.15
2023-01-31T11:19:03.246Z,2.60
2023-01-31T11:21:31.609Z,3.83
2023-01-31T11:24:05.846Z,5.15
2023-01-31T11:26:37.393Z,3.53
2023-01-31T11:29:18.881Z,6.47
2023-01-31T11:31:47.735Z,4.10
2023-01-31T11:34:22.704Z,10.38
2023-01-31T11:36:49.886Z,8.88
2023-01-31T11:39:32.019Z,15.48
2023-01-31T11:42:06.095Z,8.77
2023-01-31T11:44:33.198Z,10.88
2023-01-31T11:47:04.650Z,8.20
2023-01-31T11:49:31.335Z,10.00
2023-01-31T11:52:00.690Z,10.88
2023-01-31T11:54:31.337Z,9.85
2023-01-31T11:57:00.557Z,6.03
2023-01-31T11:59:30.124Z,8.38
2023-01-31T12:02:00.265Z,9.82
2023-01-31T12:04:40.907Z,10.52
2023-01-31T12:07:25.320Z,7.70
2023-01-31T12:09:52.623Z,5.05
2023-01-31T12:12:34.664Z,8.85
2023-01-31T12:15:14.742Z,9.32
2023-01-31T12:17:44.932Z,10.65
2023-01-31T12:20:28.763Z,10.18
2023-01-31T12:23:05.081Z,4.78
2023-01-31T12:25:49.639Z,12.15
2023-01-31T12:28:47.716Z,13.23
2023-01-31T12:31:33.286Z,7.35
2023-01-31T12:34:47.085Z,15.23
2023-01-31T12:37:28.644Z,6.28
2023-01-31T12:40:24.771Z,10.52
2023-01-31T12:42:59.644Z,7.18
2023-01-31T12:45:38.381Z,6.40
2023-01-31T12:48:08.044Z,5.18
2023-01-31T12:51:03.948Z,6.40
2023-01-31T12:53:39.821Z,6.82
2023-01-31T12:56:29.194Z,9.07
2023-01-31T12:59:16.372Z,6.25
2023-01-31T13:01:51.160Z,9.27
2023-01-31T13:04:34.860Z,10.48
2023-01-31T13:07:04.765Z,11.73
2023-01-31T13:09:34.957Z,9.45
2023-01-31T13:12:20.435Z,9.50
2023-01-31T13:15:11.088Z,24.50
2023-01-31T13:17:38.893Z,18.67
2023-01-31T13:20:35.711Z,14.10
2023-01-31T13:23:09.647Z,10.30
2023-01-31T13:25:50.239Z,13.43
2023-01-31T13:28:19.480Z,27.17
2023-01-31T13:30:50.977Z,24.13
2023-01-31T13:33:23.824Z,16.40
2023-01-31T13:36:15.446Z,11.43
2023-01-31T13:38:43.740Z,14.95
2023-01-31T13:41:30.426Z,12.50
2023-01-31T13:43:59.305Z,9.90
2023-01-31T13:46:55.691Z,13.02
2023-01-31T13:49:34.438Z,12.85
2023-01-31T13:52:03.544Z,11.05
2023-01-31T13:54:35.496Z,10.80
2023-01-31T13:57:02.483Z,13.38
2023-01-31T13:59:37.956Z,11.05
2023-01-31T14:02:06.091Z,11.23
2023-01-31T14:04:39.066Z,8.32
2023-01-31T14:07:06.948Z,7.97
2023-01-31T14:09:36.038Z,11.35
2023-01-31T14:12:22.649Z,7.22
2023-01-31T14:14:49.341Z,11.18
2023-01-31T14:17:22.154Z,9.27
2023-01-31T14:19:51.855Z,5.10
2023-01-31T14:22:34.148Z,11.32
2023-01-31T14:25:01.984Z,7.15
2023-01-31T14:27:40.729Z,11.15
2023-01-31T14:30:07.818Z,8.18
2023-01-31T14:32:47.595Z,14.30
2023-01-31T14:35:14.401Z,7.55
2023-01-31T14:37:52.480Z,11.95
2023-01-31T14:40:28.066Z,10.23
2023-01-31T14:42:54.724Z,8.02
2023-01-31T14:45:30.542Z,12.13
2023-01-31T14:48:03.175Z,6.72
2023-01-31T14:50:30.556Z,7.57
2023-01-31T14:53:18.899Z,7.70
2023-01-31T14:56:08.201Z,12.38
2023-01-31T14:58:36.043Z,12.95
2023-01-31T15:01:05.213Z,6.88
2023-01-31T15:03:38.462Z,8.07
2023-01-31T15:06:29.088Z,6.45
2023-01-31T15:09:17.508Z,3.70
2023-01-31T15:11:45.199Z,7.35
2023-01-31T15:14:34.773Z,10.43
2023-01-31T15:17:35.627Z,12.05
2023-01-31T15:20:17.533Z,12.75
2023-01-31T15:22:44.221Z,12.15
2023-01-31T15:25:49.950Z,9.75
2023-01-31T15:28:21.679Z,7.85
2023-01-31T15:30:48.787Z,9.73
2023-01-31T15:33:16.482Z,15.70
2023-01-31T15:35:48.573Z,15.98
2023-01-31T15:38:41.066Z,6.80
2023-01-31T15:41:25.474Z,5.38
2023-01-31T15:43:53.966Z,7.55
2023-01-31T15:46:35.788Z,7.70
2023-01-31T15:49:08.170Z,8.38
2023-01-31T15:51:34.910Z,7.40
2023-01-31T15:54:06.096Z,3.92
2023-01-31T15:56:35.544Z,9.38
2023-01-31T15:59:04.295Z,8.02
2023-01-31T16:01:32.242Z,7.07
2023-01-31T16:03:59.200Z,6.50
2023-01-31T16:06:34.572Z,7.82
2023-01-31T16:09:02.752Z,5.30
2023-01-31T16:11:33.549Z,6.03
2023-01-31T16:14:05.235Z,7.45
2023-01-31T16:16:34.686Z,6.05
2023-01-31T16:19:02.124Z,7.13
2023-01-31T16:21:38.555Z,8.73
2023-01-31T16:24:12.125Z,7.90
2023-01-31T16:27:00.330Z,6.75
2023-01-31T16:29:41.005Z,4.40
2023-01-31T16:32:24.021Z,8.10
2023-01-31T16:35:04.841Z,3.90
2023-01-31T16:37:41.889Z,5.05
2023-01-31T16:40:21.197Z,6.63
2023-01-31T16:42:48.072Z,7.05
2023-01-31T16:45:33.778Z,5.75
2023-01-31T16:48:28.156Z,9.40
2023-01-31T16:51:04.908Z,7.00
2023-01-31T16:53:34.255Z,6.65
2023-01-31T16:56:13.329Z,6.93
2023-01-31T16:58:58.554Z,7.40
2023-01-31T17:01:31.106Z,9.63
2023-01-31T17:04:09.760Z,6.63
2023-01-31T17:06:36.497Z,5.40
2023-01-31T17:09:05.425Z,8.25
2023-01-31T17:11:42.746Z,6.15
2023-01-31T17:14:10.308Z,7.35
2023-01-31T17:16:37.054Z,6.93
2023-01-31T17:19:05.680Z,5.97
2023-01-31T17:21:35.925Z,6.28
2023-01-31T17:24:03.435Z,5.65
2023-01-31T17:26:31.130Z,5.68
2023-01-31T17:29:01.867Z,5.53
2023-01-31T17:31:29.606Z,5.40
2023-01-31T17:33:56.476Z,6.93
2023-01-31T17:36:23.537Z,8.18
2023-01-31T17:38:52.034Z,6.35
2023-01-31T17:41:20.713Z,6.57
2023-01-31T17:43:47.867Z,4.78
2023-01-31T17:46:16.612Z,6.85
2023-01-31T17:48:43.617Z,9.65
2023-01-31T17:51:11.086Z,4.55
2023-01-31T17:53:48.820Z,6.10
2023-01-31T17:56:17.667Z,4.43
2023-01-31T17:58:44.793Z,6.30
2023-01-31T18:01:14.066Z,4.78
2023-01-31T18:03:41.322Z,7.70
2023-01-31T18:06:09.197Z,4.35
2023-01-31T18:08:36.933Z,8.38
2023-01-31T18:11:09.064Z,6.22
2023-01-31T18:13:38.267Z,4.32
2023-01-31T18:16:13.511Z,4.28
2023-01-31T18:18:46.080Z,6.50
2023-01-31T18:21:17.299Z,10.00
2023-01-31T18:23:44.042Z,9.75
2023-01-31T18:26:10.989Z,7.65
2023-01-31T18:28:37.763Z,6.78
2023-01-31T18:31:07.412Z,9.10
2023-01-31T18:33:35.420Z,8.15
2023-01-31T18:36:02.190Z,10.95
2023-01-31T18:38:29.375Z,9.13
2023-01-31T18:40:56.605Z,9.35
2023-01-31T18:43:23.440Z,9.57
2023-01-31T18:45:50.132Z,11.93
2023-01-31T18:48:16.837Z,12.20
2023-01-31T18:50:43.578Z,8.57
2023-01-31T18:53:10.254Z,12.85
2023-01-31T18:55:38.090Z,12.77
2023-01-31T18:58:04.821Z,11.60
2023-01-31T19:00:31.571Z,9.32
2023-01-31T19:02:58.690Z,15.07
2023-01-31T19:05:25.773Z,9.75
2023-01-31T19:07:52.590Z,5.53
2023-01-31T19:10:19.385Z,8.13
2023-01-31T19:12:46.304Z,8.73
2023-01-31T19:15:13.604Z,6.25
2023-01-31T19:17:40.353Z,10.25
2023-01-31T19:20:09.237Z,8.82
2023-01-31T19:22:36.065Z,12.80
2023-01-31T19:25:05.449Z,9.85
2023-01-31T19:27:32.267Z,9.73
2023-01-31T19:29:59.931Z,9.75
2023-01-31T19:32:29.125Z,9.10
2023-01-31T19:34:55.922Z,9.25
2023-01-31T19:37:22.678Z,10.55
2023-01-31T19:39:49.460Z,9.27
2023-01-31T19:42:16.195Z,11.45
2023-01-31T19:44:42.924Z,13.43
2023-01-31T19:47:10.291Z,9.15
2023-01-31T19:49:37.045Z,10.75
2023-01-31T19:52:03.860Z,9.05
2023-01-31T19:54:30.617Z,8.52
2023-01-31T19:56:57.317Z,11.40
2023-01-31T19:59:24.253Z,6.13
2023-01-31T20:01:51.070Z,9.15
2023-01-31T20:04:17.820Z,5.35
2023-01-31T20:06:44.537Z,9.32
2023-01-31T20:09:16.051Z,9.00
2023-01-31T20:11:42.781Z,6.20
2023-01-31T20:14:10.089Z,7.60
2023-01-31T20:16:38.594Z,7.57
2023-01-31T20:19:06.943Z,4.97
2023-01-31T20:21:34.370Z,5.93
2023-01-31T20:24:01.171Z,3.95
2023-01-31T20:26:29.539Z,8.68
2023-01-31T20:28:56.401Z,4.32
2023-01-31T20:31:23.273Z,8.82
2023-01-31T20:33:54.635Z,7.15
2023-01-31T20:36:23.865Z,5.32
2023-01-31T20:38:50.786Z,5.85
2023-01-31T20:41:17.528Z,7.85
2023-01-31T20:43:44.288Z,7.57
2023-01-31T20:46:12.443Z,3.50
2023-01-31T20:48:40.308Z,6.22
2023-01-31T20:51:08.049Z,5.47
2023-01-31T20:53:34.744Z,7.38
2023-01-31T20:56:05.788Z,6.03
2023-01-31T20:58:34.416Z,5.22
2023-01-31T21:01:03.518Z,5.13
2023-01-31T21:03:32.235Z,5.07
2023-01-31T21:06:01.771Z,5.13
2023-01-31T21:08:28.570Z,4.03
2023-01-31T21:10:57.076Z,7.20
2023-01-31T21:13:24.160Z,4.90
2023-01-31T21:15:55.068Z,6.90
2023-01-31T21:18:22.042Z,4.35
2023-01-31T21:20:49.279Z,7.30
2023-01-31T21:23:16.183Z,4.20
2023-01-31T21:25:42.899Z,2.95
2023-01-31T21:28:10.988Z,4.28
2023-01-31T21:30:37.758Z,3.70
2023-01-31T21:33:04.686Z,5.45
2023-01-31T21:35:31.416Z,3.25
2023-01-31T21:37:58.344Z,4.55
2023-01-31T21:40:25.494Z,4.95
2023-01-31T21:42:53.145Z,7.00
2023-01-31T21:45:40.721Z,4.65
2023-01-31T21:48:29.052Z,3.58
2023-01-31T21:50:56.721Z,3.35
2023-01-31T21:53:23.414Z,5.93
2023-01-31T21:55:50.437Z,6.18
2023-01-31T21:58:17.607Z,7.00
2023-01-31T22:00:44.640Z,4.68
2023-01-31T22:03:13.680Z,4.28
2023-01-31T22:05:41.614Z,4.30
2023-01-31T22:08:08.635Z,4.38
2023-01-31T22:10:35.482Z,2.85
2023-01-31T22:13:02.440Z,6.13
2023-01-31T22:15:29.343Z,5.00
2023-01-31T22:17:56.293Z,4.90
2023-01-31T22:20:23.639Z,4.03
2023-01-31T22:22:50.592Z,4.85
2023-01-31T22:25:17.559Z,5.30
2023-01-31T22:27:45.248Z,3.38
2023-01-31T22:30:16.888Z,4.20
2023-01-31T22:32:45.119Z,3.75
2023-01-31T22:35:11.901Z,3.95
2023-01-31T22:37:39.499Z,3.97
2023-01-31T22:40:06.603Z,4.13
2023-01-31T22:42:33.314Z,4.57
2023-01-31T22:45:00.040Z,3.83
2023-01-31T22:47:26.872Z,3.78
2023-01-31T22:49:53.596Z,7.10
2023-01-31T22:52:20.311Z,4.53
2023-01-31T22:54:47.009Z,3.60
2023-01-31T22:57:14.327Z,3.20
2023-01-31T22:59:41.634Z,3.17
2023-01-31T23:02:08.371Z,3.58
2023-01-31T23:04:35.168Z,5.85
2023-01-31T23:07:01.922Z,5.07
2023-01-31T23:09:28.591Z,3.67
2023-01-31T23:11:55.249Z,2.70
2023-01-31T23:14:21.918Z,2.42
2023-01-31T23:17:07.140Z,5.63
2023-01-31T23:19:34.027Z,4.35
2023-01-31T23:22:00.914Z,5.63
2023-01-31T23:24:27.616Z,2.88
2023-01-31T23:26:54.673Z,2.55
2023-01-31T23:29:21.419Z,4.55
2023-01-31T23:31:48.609Z,3.47
2023-01-31T23:34:16.183Z,3.28
2023-01-31T23:36:42.944Z,4.15
2023-01-31T23:39:09.785Z,3.90
2023-01-31T23:41:36.481Z,2.72
2023-01-31T23:44:03.605Z,4.38
2023-01-31T23:46:30.551Z,2.42
2023-01-31T23:48:57.303Z,3.38
2023-01-31T23:51:24.025Z,4.68
2023-01-31T23:53:50.821Z,3.10
2023-01-31T23:56:18.824Z,4.45
2023-01-31T23:58:45.534Z,3.00
